createdAt,value
2023-06-04T00:01:53.054Z,65.40
2023-06-04T00:04:24.413Z,65.40
2023-06-04T00:06:51.405Z,65.60
2023-06-04T00:09:21.156Z,65.60
2023-06-04T00:11:48.307Z,66.20
2023-06-04T00:14:16.355Z,66.80
2023-06-04T00:16:43.467Z,66.10
2023-06-04T00:19:13.289Z,67.00
2023-06-04T00:21:41.007Z,66.60
2023-06-04T00:24:07.939Z,66.00
2023-06-04T00:26:34.986Z,66.70
2023-06-04T00:29:02.696Z,66.10
2023-06-04T00:31:29.983Z,67.10
2023-06-04T00:33:56.968Z,66.30
2023-06-04T00:36:24.158Z,66.60
2023-06-04T00:38:53.478Z,67.70
2023-06-04T00:41:20.354Z,67.00
2023-06-04T00:43:56.040Z,66.90
2023-06-04T00:46:26.788Z,67.50
2023-06-04T00:48:54.767Z,67.50
2023-06-04T00:51:22.783Z,68.50
2023-06-04T00:53:57.935Z,68.00
2023-06-04T00:56:24.896Z,67.70
2023-06-04T00:58:53.755Z,68.50
2023-06-04T01:01:34.756Z,68.40
2023-06-04T01:04:05.312Z,68.50
2023-06-04T01:06:41.588Z,68.60
2023-06-04T01:09:08.782Z,68.80
2023-06-04T01:11:41.634Z,69.10
2023-06-04T01:14:11.635Z,69.50
2023-06-04T01:16:48.289Z,70.10
2023-06-04T01:19:50.495Z,69.80
2023-06-04T01:22:36.624Z,70.00
2023-06-04T01:25:10.747Z,70.40
2023-06-04T01:27:38.093Z,70.30
2023-06-04T01:30:05.630Z,70.60
2023-06-04T01:32:32.629Z,70.80
2023-06-04T01:35:00.512Z,71.30
2023-06-04T01:37:27.555Z,71.40
2023-06-04T01:39:56.909Z,71.50
2023-06-04T01:42:26.148Z,71.60
2023-06-04T01:44:52.907Z,72.20
2023-06-04T01:47:19.786Z,72.50
2023-06-04T01:49:46.817Z,72.80
2023-06-04T01:52:17.246Z,73.00
2023-06-04T01:54:44.278Z,72.60
2023-06-04T01:57:11.288Z,72.70
2023-06-04T01:59:42.361Z,73.70
2023-06-04T02:02:09.292Z,73.20
2023-06-04T02:04:38.484Z,73.90
2023-06-04T02:07:14.992Z,74.00
2023-06-04T02:09:42.462Z,73.80
2023-06-04T02:12:09.627Z,74.00
2023-06-04T02:14:40.384Z,74.50
2023-06-04T02:17:13.530Z,75.10
2023-06-04T02:19:45.790Z,75.20
2023-06-04T02:22:15.678Z,75.00
2023-06-04T02:24:43.384Z,75.60
2023-06-04T02:27:10.899Z,76.00
2023-06-04T02:29:40.441Z,75.40
2023-06-04T02:32:08.041Z,75.70
2023-06-04T02:34:37.494Z,75.70
2023-06-04T02:37:04.930Z,75.90
2023-06-04T02:39:34.752Z,77.10
2023-06-04T02:42:01.715Z,76.70
2023-06-04T02:44:30.801Z,77.00
2023-06-04T02:47:00.175Z,76.70
2023-06-04T02:49:27.069Z,77.00
2023-06-04T02:51:53.821Z,78.30
2023-06-04T02:54:20.991Z,78.30
2023-06-04T02:56:50.905Z,78.70
2023-06-04T02:59:20.094Z,78.40
2023-06-04T03:01:47.240Z,78.30
2023-06-04T03:04:16.672Z,78.20
2023-06-04T03:06:47.375Z,78.80
2023-06-04T03:09:14.850Z,79.30
2023-06-04T03:11:45.888Z,79.10
2023-06-04T03:14:12.684Z,79.70
2023-06-04T03:16:42.172Z,79.40
2023-06-04T03:19:09.612Z,79.80
2023-06-04T03:21:40.673Z,79.90
2023-06-04T03:24:08.264Z,79.70
2023-06-04T03:26:35.233Z,79.50
2023-06-04T03:29:04.666Z,79.40
2023-06-04T03:31:34.118Z,80.30
2023-06-04T03:34:01.355Z,80.60
2023-06-04T03:36:39.223Z,80.70
2023-06-04T03:39:09.604Z,80.90
2023-06-04T03:41:37.029Z,80.70
2023-06-04T03:44:06.580Z,81.50
2023-06-04T03:46:34.624Z,81.30
2023-06-04T03:49:04.459Z,81.10
2023-06-04T03:51:32.182Z,80.30
2023-06-04T03:54:00.199Z,80.40
2023-06-04T03:56:29.842Z,81.70
2023-06-04T03:59:02.112Z,82.40
2023-06-04T04:01:32.440Z,81.80
2023-06-04T04:03:59.413Z,82.10
2023-06-04T04:06:26.502Z,80.60
2023-06-04T04:08:56.748Z,80.80
2023-06-04T04:11:23.670Z,80.90
2023-06-04T04:13:52.835Z,80.30
2023-06-04T04:16:23.650Z,79.70
2023-06-04T04:18:51.385Z,80.30
2023-06-04T04:21:22.033Z,81.20
2023-06-04T04:23:51.533Z,80.10
2023-06-04T04:26:21.055Z,80.40
2023-06-04T04:28:53.368Z,79.90
2023-06-04T04:31:24.405Z,80.00
2023-06-04T04:33:56.000Z,80.00
2023-06-04T04:36:24.823Z,80.60
2023-06-04T04:38:55.521Z,81.00
2023-06-04T04:41:27.184Z,81.40
2023-06-04T04:43:55.596Z,81.30
2023-06-04T04:46:27.272Z,81.50
2023-06-04T04:48:56.920Z,80.40
2023-06-04T04:51:26.123Z,81.70
2023-06-04T04:53:55.625Z,81.00
2023-06-04T04:56:23.598Z,81.80
2023-06-04T04:58:52.122Z,80.50
2023-06-04T05:01:20.144Z,80.20
2023-06-04T05:03:47.639Z,81.30
2023-06-04T05:06:18.897Z,81.90
2023-06-04T05:08:48.935Z,80.10
2023-06-04T05:11:19.451Z,81.10
2023-06-04T05:13:48.410Z,81.50
2023-06-04T05:16:15.442Z,82.00
2023-06-04T05:18:46.036Z,81.90
2023-06-04T05:21:18.123Z,80.90
2023-06-04T05:23:51.507Z,81.10
2023-06-04T05:26:28.679Z,79.60
2023-06-04T05:29:01.879Z,82.30
2023-06-04T05:31:37.866Z,81.50
2023-06-04T05:34:09.623Z,81.30
2023-06-04T05:36:40.341Z,81.70
2023-06-04T05:39:10.190Z,80.00
2023-06-04T05:41:46.472Z,79.00
2023-06-04T05:44:14.153Z,79.80
2023-06-04T05:46:43.231Z,78.20
2023-06-04T05:49:13.881Z,78.90
2023-06-04T05:51:40.756Z,79.80
2023-06-04T05:54:08.102Z,79.60
2023-06-04T05:56:38.125Z,78.90
2023-06-04T05:59:07.549Z,79.60
2023-06-04T06:01:37.462Z,80.50
2023-06-04T06:04:04.573Z,80.40
2023-06-04T06:06:36.618Z,80.00
2023-06-04T06:09:06.962Z,80.40
2023-06-04T06:11:34.703Z,80.50
2023-06-04T06:14:03.756Z,80.50
2023-06-04T06:16:33.828Z,82.00
2023-06-04T06:19:02.408Z,76.10
2023-06-04T06:21:29.379Z,76.50
2023-06-04T06:24:01.366Z,75.70
2023-06-04T06:26:33.594Z,77.90
2023-06-04T06:29:03.979Z,77.60
2023-06-04T06:31:32.491Z,79.10
2023-06-04T06:33:59.545Z,79.00
2023-06-04T06:36:27.380Z,75.10
2023-06-04T06:38:56.740Z,72.90
2023-06-04T06:41:23.690Z,75.10
2023-06-04T06:43:51.826Z,76.50
2023-06-04T06:46:18.938Z,77.70
2023-06-04T06:48:46.696Z,76.90
2023-06-04T06:51:13.632Z,76.20
2023-06-04T06:53:40.757Z,76.60
2023-06-04T06:56:08.091Z,75.90
2023-06-04T06:58:35.011Z,77.60
2023-06-04T07:01:02.696Z,75.30
2023-06-04T07:03:32.443Z,70.60
2023-06-04T07:05:59.488Z,71.50
2023-06-04T07:08:26.888Z,69.80
2023-06-04T07:10:53.791Z,72.00
2023-06-04T07:13:22.892Z,71.90
2023-06-04T07:15:49.760Z,73.20
2023-06-04T07:18:16.701Z,71.80
2023-06-04T07:20:43.667Z,72.50
2023-06-04T07:23:12.884Z,68.80
2023-06-04T07:25:39.794Z,69.40
2023-06-04T07:28:06.700Z,69.70
2023-06-04T07:30:38.436Z,69.10
2023-06-04T07:33:08.031Z,70.40
2023-06-04T07:35:35.088Z,70.90
2023-06-04T07:38:02.071Z,70.70
2023-06-04T07:40:31.612Z,69.00
2023-06-04T07:43:01.107Z,71.00
2023-06-04T07:45:35.707Z,67.00
2023-06-04T07:48:03.272Z,63.90
2023-06-04T07:50:31.374Z,67.00
2023-06-04T07:52:59.444Z,68.40
2023-06-04T07:55:26.395Z,62.70
2023-06-04T07:57:56.134Z,62.20
2023-06-04T08:00:23.133Z,63.20
2023-06-04T08:02:53.674Z,65.80
2023-06-04T08:05:24.243Z,66.50
2023-06-04T08:07:51.231Z,65.20
2023-06-04T08:10:18.102Z,65.60
2023-06-04T08:12:44.960Z,64.70
2023-06-04T08:15:11.951Z,61.60
2023-06-04T08:17:39.166Z,61.80
2023-06-04T08:20:12.743Z,62.60
2023-06-04T08:22:39.874Z,60.00
2023-06-04T08:25:10.116Z,60.20
2023-06-04T08:27:39.556Z,60.30
2023-06-04T08:30:10.233Z,59.20
2023-06-04T08:32:37.152Z,60.00
2023-06-04T08:35:04.522Z,60.20
2023-06-04T08:37:33.512Z,59.50
2023-06-04T08:40:00.387Z,60.50
2023-06-04T08:42:37.111Z,60.60
2023-06-04T08:45:12.148Z,60.50
2023-06-04T08:47:42.097Z,58.20
2023-06-04T08:50:12.065Z,57.40
2023-06-04T08:52:40.716Z,55.30
2023-06-04T08:55:10.108Z,55.40
2023-06-04T08:57:37.349Z,56.00
2023-06-04T09:00:08.706Z,51.90
2023-06-04T09:02:39.275Z,52.10
2023-06-04T09:05:10.073Z,51.10
2023-06-04T09:07:42.135Z,51.00
2023-06-04T09:10:13.725Z,49.40
2023-06-04T09:12:45.577Z,49.40
2023-06-04T09:15:15.171Z,49.90
2023-06-04T09:17:44.743Z,49.50
2023-06-04T09:20:25.235Z,49.40
2023-06-04T09:22:52.264Z,48.10
2023-06-04T09:25:27.769Z,48.20
2023-06-04T09:27:58.477Z,45.90
2023-06-04T09:30:25.813Z,47.20
2023-06-04T09:32:55.541Z,46.00
2023-06-04T09:35:24.803Z,48.00
2023-06-04T09:38:00.057Z,46.60
2023-06-04T09:40:39.608Z,47.30
2023-06-04T09:43:07.179Z,46.60
2023-06-04T09:45:36.246Z,44.40
2023-06-04T09:48:05.736Z,45.20
2023-06-04T09:50:38.063Z,46.50
2023-06-04T09:53:15.055Z,45.30
2023-06-04T09:55:41.990Z,45.00
2023-06-04T09:58:11.124Z,45.40
2023-06-04T10:00:38.542Z,46.60
2023-06-04T10:03:12.788Z,47.20
2023-06-04T10:05:40.152Z,47.50
2023-06-04T10:08:12.824Z,47.50
2023-06-04T10:10:40.201Z,48.60
2023-06-04T10:13:13.148Z,48.90
2023-06-04T10:15:42.530Z,49.60
2023-06-04T10:18:11.080Z,51.10
2023-06-04T10:20:38.909Z,50.50
2023-06-04T10:23:06.564Z,50.80
2023-06-04T10:25:33.718Z,51.20
2023-06-04T10:28:04.699Z,51.90
2023-06-04T10:30:32.210Z,52.30
2023-06-04T10:33:01.715Z,51.60
2023-06-04T10:35:35.982Z,52.50
2023-06-04T10:38:17.702Z,51.20
2023-06-04T10:40:45.104Z,52.80
2023-06-04T10:43:14.082Z,52.00
2023-06-04T10:45:44.051Z,51.60
2023-06-04T10:48:14.862Z,52.70
2023-06-04T10:50:54.398Z,53.20
2023-06-04T10:53:21.654Z,53.10
2023-06-04T10:55:50.201Z,53.10
2023-06-04T10:58:17.326Z,53.00
2023-06-04T11:00:50.362Z,53.60
2023-06-04T11:03:18.300Z,52.70
2023-06-04T11:05:47.815Z,53.60
2023-06-04T11:08:15.774Z,54.80
2023-06-04T11:10:47.203Z,54.40
2023-06-04T11:13:14.391Z,54.00
2023-06-04T11:15:42.654Z,53.90
2023-06-04T11:18:16.936Z,52.20
2023-06-04T11:20:47.926Z,54.20
2023-06-04T11:23:15.790Z,54.00
2023-06-04T11:25:46.779Z,53.60
2023-06-04T11:28:20.488Z,52.90
2023-06-04T11:31:04.418Z,54.00
2023-06-04T11:33:43.738Z,52.50
2023-06-04T11:36:11.199Z,53.60
2023-06-04T11:38:38.076Z,52.80
2023-06-04T11:41:07.737Z,52.70
2023-06-04T11:43:36.081Z,54.00
2023-06-04T11:46:07.683Z,54.20
2023-06-04T11:48:42.629Z,54.00
2023-06-04T11:51:12.773Z,53.60
2023-06-04T11:53:45.004Z,54.60
2023-06-04T11:56:12.738Z,52.40
2023-06-04T11:58:42.191Z,53.00
2023-06-04T12:01:12.417Z,51.90
2023-06-04T12:03:44.526Z,53.60
2023-06-04T12:06:15.327Z,54.60
2023-06-04T12:09:00.109Z,54.10
2023-06-04T12:11:33.750Z,53.80
2023-06-04T12:14:07.838Z,55.10
2023-06-04T12:16:35.349Z,54.60
2023-06-04T12:19:14.320Z,52.00
2023-06-04T12:21:42.942Z,51.80
2023-06-04T12:24:15.188Z,51.30
2023-06-04T12:26:49.563Z,50.90
2023-06-04T12:29:21.065Z,51.70
2023-06-04T12:31:48.070Z,53.80
2023-06-04T12:34:15.912Z,51.80
2023-06-04T12:36:47.530Z,53.10
2023-06-04T12:39:19.521Z,54.10
2023-06-04T12:41:49.402Z,52.50
2023-06-04T12:44:16.492Z,52.50
2023-06-04T12:46:43.463Z,51.60
2023-06-04T12:49:10.372Z,52.90
2023-06-04T12:51:37.909Z,52.60
2023-06-04T12:54:04.861Z,51.70
2023-06-04T12:56:32.004Z,52.10
2023-06-04T12:58:59.004Z,51.90
2023-06-04T13:01:28.181Z,52.10
2023-06-04T13:03:56.730Z,51.70
2023-06-04T13:06:23.846Z,51.20
2023-06-04T13:08:50.888Z,51.30
2023-06-04T13:11:18.612Z,50.20
2023-06-04T13:13:45.598Z,49.80
2023-06-04T13:16:12.681Z,50.50
2023-06-04T13:18:39.814Z,49.90
2023-06-04T13:21:09.866Z,50.20
2023-06-04T13:23:49.771Z,50.30
2023-06-04T13:26:22.900Z,50.30
2023-06-04T13:28:52.524Z,51.10
2023-06-04T13:31:19.623Z,51.10
2023-06-04T13:33:46.989Z,52.70
2023-06-04T13:36:14.048Z,50.00
2023-06-04T13:38:43.259Z,49.60
2023-06-04T13:41:15.209Z,49.30
2023-06-04T13:43:42.339Z,52.60
2023-06-04T13:46:09.317Z,50.40
2023-06-04T13:48:36.238Z,53.90
2023-06-04T13:51:03.168Z,51.60
2023-06-04T13:53:32.708Z,51.30
2023-06-04T13:56:00.340Z,51.60
2023-06-04T13:58:27.497Z,50.60
2023-06-04T14:00:57.256Z,50.20
2023-06-04T14:03:26.647Z,50.30
2023-06-04T14:05:53.583Z,50.10
2023-06-04T14:08:22.859Z,49.10
2023-06-04T14:10:53.015Z,48.20
2023-06-04T14:13:20.012Z,46.10
2023-06-04T14:15:47.010Z,43.90
2023-06-04T14:18:18.941Z,41.30
2023-06-04T14:20:45.795Z,39.30
2023-06-04T14:23:13.064Z,36.00
2023-06-04T14:25:39.998Z,36.20
2023-06-04T14:28:09.122Z,36.40
2023-06-04T14:30:38.305Z,33.10
2023-06-04T14:33:05.306Z,33.60
2023-06-04T14:35:32.252Z,33.60
2023-06-04T14:38:01.367Z,32.30
2023-06-04T14:40:30.778Z,32.70
2023-06-04T14:42:58.651Z,31.30
2023-06-04T14:45:25.610Z,31.40
2023-06-04T14:47:59.974Z,31.60
2023-06-04T14:50:39.907Z,31.70
2023-06-04T14:53:10.654Z,33.90
2023-06-04T14:55:37.923Z,34.80
2023-06-04T14:58:05.581Z,35.50
2023-06-04T15:00:33.250Z,35.60
2023-06-04T15:03:03.490Z,35.80
2023-06-04T15:05:33.657Z,35.80
2023-06-04T15:08:04.336Z,37.20
2023-06-04T15:10:31.446Z,39.60
2023-06-04T15:12:58.557Z,40.10
2023-06-04T15:15:27.452Z,40.20
2023-06-04T15:17:54.445Z,41.50
2023-06-04T15:20:21.486Z,42.00
2023-06-04T15:22:53.281Z,42.80
2023-06-04T15:25:21.093Z,42.80
2023-06-04T15:27:51.190Z,42.70
2023-06-04T15:30:18.622Z,43.80
2023-06-04T15:32:46.046Z,43.20
2023-06-04T15:35:13.112Z,43.90
2023-06-04T15:37:42.424Z,44.30
2023-06-04T15:40:12.123Z,45.30
2023-06-04T15:42:39.022Z,44.70
2023-06-04T15:45:06.345Z,45.00
2023-06-04T15:47:35.541Z,45.30
2023-06-04T15:50:03.038Z,46.10
2023-06-04T15:52:30.452Z,45.60
2023-06-04T15:54:57.672Z,45.20
2023-06-04T15:57:27.291Z,46.50
2023-06-04T15:59:54.368Z,48.10
2023-06-04T16:02:23.895Z,47.70
2023-06-04T16:04:50.949Z,46.50
2023-06-04T16:07:19.982Z,48.20
2023-06-04T16:09:49.337Z,48.30
2023-06-04T16:12:16.547Z,48.10
2023-06-04T16:14:43.457Z,47.00
2023-06-04T16:17:10.364Z,48.50
2023-06-04T16:19:37.242Z,47.30
2023-06-04T16:22:06.863Z,46.20
2023-06-04T16:24:33.854Z,47.30
2023-06-04T16:27:00.939Z,47.00
2023-06-04T16:29:30.145Z,47.60
2023-06-04T16:31:57.087Z,47.80
2023-06-04T16:34:23.983Z,47.50
2023-06-04T16:36:53.326Z,47.60
2023-06-04T16:39:22.389Z,47.50
2023-06-04T16:41:49.301Z,47.60
2023-06-04T16:44:16.185Z,48.60
2023-06-04T16:46:43.663Z,48.00
2023-06-04T16:49:12.787Z,49.40
2023-06-04T16:51:42.225Z,48.80
2023-06-04T16:54:11.356Z,49.10
2023-06-04T16:56:41.830Z,48.50
2023-06-04T16:59:11.539Z,49.10
2023-06-04T17:01:40.716Z,49.30
2023-06-04T17:04:07.752Z,51.00
2023-06-04T17:06:36.890Z,50.80
2023-06-04T17:09:04.088Z,49.80
2023-06-04T17:11:33.159Z,49.80
2023-06-04T17:14:00.378Z,49.60
2023-06-04T17:16:29.520Z,49.50
2023-06-04T17:18:56.818Z,52.60
2023-06-04T17:21:23.898Z,51.90
2023-06-04T17:23:51.011Z,52.50
2023-06-04T17:26:18.155Z,49.90
2023-06-04T17:28:47.254Z,50.20
2023-06-04T17:31:18.151Z,51.20
2023-06-04T17:33:48.251Z,50.50
2023-06-04T17:36:18.081Z,51.20
2023-06-04T17:38:47.097Z,50.80
2023-06-04T17:41:16.776Z,51.30
2023-06-04T17:43:43.800Z,51.90
2023-06-04T17:46:15.520Z,52.10
2023-06-04T17:48:44.723Z,52.10
2023-06-04T17:51:11.892Z,52.50
2023-06-04T17:53:38.907Z,52.80
2023-06-04T17:56:06.209Z,52.90
2023-06-04T17:58:33.421Z,53.70
2023-06-04T18:01:02.894Z,53.70
2023-06-04T18:03:31.467Z,52.80
2023-06-04T18:06:00.654Z,53.10
2023-06-04T18:08:30.053Z,53.60
2023-06-04T18:10:57.618Z,54.10
2023-06-04T18:13:24.597Z,55.70
2023-06-04T18:15:51.580Z,53.50
2023-06-04T18:18:18.941Z,53.40
2023-06-04T18:20:53.573Z,54.20
2023-06-04T18:23:20.768Z,53.90
2023-06-04T18:25:47.770Z,55.00
2023-06-04T18:28:16.472Z,55.70
2023-06-04T18:30:43.621Z,55.00
2023-06-04T18:33:10.577Z,55.50
2023-06-04T18:35:37.580Z,55.20
2023-06-04T18:38:05.990Z,54.00
2023-06-04T18:40:38.250Z,54.10
2023-06-04T18:43:05.490Z,55.50
2023-06-04T18:45:37.445Z,55.30
2023-06-04T18:48:04.600Z,55.00
2023-06-04T18:50:33.988Z,54.70
2023-06-04T18:53:02.698Z,55.90
2023-06-04T18:55:34.390Z,56.20
2023-06-04T18:58:01.403Z,57.70
2023-06-04T19:00:34.890Z,58.50
2023-06-04T19:03:04.557Z,55.90
2023-06-04T19:05:31.542Z,57.20
2023-06-04T19:07:58.506Z,57.90
2023-06-04T19:10:25.446Z,58.00
2023-06-04T19:12:52.388Z,58.20
2023-06-04T19:15:21.683Z,58.20
2023-06-04T19:17:48.784Z,56.60
2023-06-04T19:20:17.233Z,55.70
2023-06-04T19:22:44.265Z,57.20
2023-06-04T19:25:13.576Z,56.70
2023-06-04T19:27:40.830Z,57.20
2023-06-04T19:30:08.391Z,56.90
2023-06-04T19:32:35.429Z,57.20
2023-06-04T19:35:02.629Z,57.00
2023-06-04T19:37:30.240Z,59.10
2023-06-04T19:39:57.130Z,58.30
2023-06-04T19:42:26.544Z,58.50
2023-06-04T19:44:53.621Z,58.60
2023-06-04T19:47:20.696Z,57.30
2023-06-04T19:49:47.835Z,58.00
2023-06-04T19:52:14.933Z,59.50
2023-06-04T19:54:41.835Z,57.20
2023-06-04T19:57:11.482Z,58.90
2023-06-04T19:59:41.871Z,59.90
2023-06-04T20:02:09.512Z,60.90
2023-06-04T20:04:36.339Z,60.00
2023-06-04T20:07:03.460Z,58.30
2023-06-04T20:09:33.564Z,58.20
2023-06-04T20:12:01.946Z,59.40
2023-06-04T20:14:32.848Z,60.50
2023-06-04T20:16:59.923Z,59.20
2023-06-04T20:19:26.860Z,59.70
2023-06-04T20:21:53.807Z,59.50
2023-06-04T20:24:21.224Z,59.20
2023-06-04T20:26:48.182Z,59.20
2023-06-04T20:29:17.601Z,60.90
2023-06-04T20:31:44.646Z,60.50
2023-06-04T20:34:11.528Z,59.80
2023-06-04T20:36:38.371Z,61.30
2023-06-04T20:39:07.951Z,62.50
2023-06-04T20:41:34.838Z,62.50
2023-06-04T20:44:01.717Z,61.70
2023-06-04T20:46:28.781Z,61.80
2023-06-04T20:48:57.935Z,62.40
2023-06-04T20:51:24.872Z,62.50
2023-06-04T20:53:51.893Z,62.40
2023-06-04T20:56:18.881Z,63.10
2023-06-04T20:58:46.567Z,63.50
2023-06-04T21:01:13.763Z,64.10
2023-06-04T21:03:43.148Z,63.60
2023-06-04T21:06:12.812Z,62.70
2023-06-04T21:08:39.838Z,64.60
2023-06-04T21:11:06.894Z,64.10
2023-06-04T21:13:35.108Z,63.90
2023-06-04T21:16:02.112Z,65.20
2023-06-04T21:18:29.250Z,64.70
2023-06-04T21:20:58.705Z,64.30
2023-06-04T21:23:26.270Z,64.70
2023-06-04T21:25:53.187Z,63.40
2023-06-04T21:28:22.377Z,65.00
2023-06-04T21:30:49.227Z,65.00
2023-06-04T21:33:16.054Z,64.90
2023-06-04T21:35:42.963Z,66.10
2023-06-04T21:38:12.122Z,66.10
2023-06-04T21:40:39.068Z,66.20
2023-06-04T21:43:05.943Z,65.00
2023-06-04T21:45:33.379Z,66.00
2023-06-04T21:48:01.148Z,66.90
2023-06-04T21:50:28.058Z,67.10
2023-06-04T21:52:57.196Z,66.30
2023-06-04T21:55:26.202Z,63.60
2023-06-04T21:57:53.072Z,63.40
2023-06-04T22:00:27.856Z,64.20
2023-06-04T22:02:54.871Z,63.80
2023-06-04T22:05:22.273Z,63.90
2023-06-04T22:07:51.344Z,64.10
2023-06-04T22:10:23.719Z,65.60
2023-06-04T22:12:53.102Z,64.80
2023-06-04T22:15:22.387Z,64.50
2023-06-04T22:17:51.485Z,64.20
2023-06-04T22:20:19.158Z,64.80
2023-06-04T22:22:48.471Z,65.30
2023-06-04T22:25:16.131Z,65.80
2023-06-04T22:27:43.177Z,65.10
2023-06-04T22:30:10.272Z,65.60
2023-06-04T22:32:40.757Z,66.20
2023-06-04T22:35:09.966Z,65.60
2023-06-04T22:37:41.494Z,66.70
2023-06-04T22:40:11.153Z,67.60
2023-06-04T22:42:38.087Z,65.90
2023-06-04T22:45:07.500Z,66.50
2023-06-04T22:47:34.506Z,67.80
2023-06-04T22:50:04.486Z,68.10
2023-06-04T22:52:33.749Z,66.50
2023-06-04T22:55:05.058Z,67.80
2023-06-04T22:57:31.853Z,68.10
2023-06-04T22:59:58.756Z,67.80
2023-06-04T23:02:25.757Z,69.30
2023-06-04T23:04:53.100Z,69.20
2023-06-04T23:07:22.478Z,70.10
2023-06-04T23:09:49.535Z,69.20
2023-06-04T23:12:16.638Z,69.40
2023-06-04T23:14:43.660Z,70.00
2023-06-04T23:17:15.774Z,70.50
2023-06-04T23:19:42.789Z,70.60
2023-06-04T23:22:09.672Z,70.50
2023-06-04T23:24:36.689Z,70.60
2023-06-04T23:27:03.919Z,70.80
2023-06-04T23:29:32.933Z,71.10
2023-06-04T23:31:59.833Z,71.60
2023-06-04T23:34:26.678Z,71.60
2023-06-04T23:36:53.551Z,71.40
2023-06-04T23:39:20.375Z,71.70
2023-06-04T23:41:47.264Z,72.60
2023-06-04T23:44:18.353Z,72.60
2023-06-04T23:46:47.988Z,72.50
2023-06-04T23:49:17.108Z,72.90
2023-06-04T23:51:44.055Z,72.60
2023-06-04T23:54:11.064Z,72.40
2023-06-04T23:56:39.919Z,72.70
2023-06-04T23:59:10.446Z,72.80
